Time;durP1;ratioP1;P1;durP2;ratioP2;P2;SDS_P1;SDS_P2;PMS_P1;PMS_P2;Temp;Humidity;BMP_temperature;BMP_pressure;BME280_temperature;BME280_humidity;BME280_pressure;Samples;Min_cycle;Max_cycle;Signal;HPM_P1;HPM_P2
2022/09/13 00:01:01;;;;;;;5.68;4.90;;;22.80;99.90;;;;;;4164896;28;20224;-75
2022/09/13 00:03:03;;;;;;;5.85;4.47;;;22.80;99.90;;;;;;4162642;28;20240;-75
2022/09/13 00:05:06;;;;;;;5.68;4.10;;;22.80;99.90;;;;;;4162311;28;21793;-75
2022/09/13 00:07:10;;;;;;;5.43;4.47;;;22.80;99.90;;;;;;4162145;28;20228;-75
2022/09/13 00:09:12;;;;;;;4.88;4.38;;;22.80;99.90;;;;;;4161600;28;20355;-75
2022/09/13 00:11:17;;;;;;;5.68;4.20;;;22.80;99.90;;;;;;4159689;28;20259;-75
2022/09/13 00:13:19;;;;;;;5.22;4.72;;;22.80;99.90;;;;;;4161773;28;20287;-75
2022/09/13 00:15:22;;;;;;;5.18;4.68;;;22.80;99.90;;;;;;4164266;28;20660;-75
2022/09/13 00:17:26;;;;;;;5.30;4.60;;;22.80;99.90;;;;;;4162781;28;20271;-75
2022/09/13 00:19:28;;;;;;;5.80;5.18;;;22.80;99.90;;;;;;4161945;28;20224;-75
2022/09/13 00:21:31;;;;;;;5.32;4.20;;;22.80;99.90;;;;;;4160668;28;20278;-75
2022/09/13 00:23:34;;;;;;;4.82;4.10;;;22.80;99.90;;;;;;4160713;28;20642;-75
2022/09/13 00:25:37;;;;;;;5.20;4.30;;;22.80;99.90;;;;;;4162105;28;20593;-75
2022/09/13 00:27:39;;;;;;;6.50;4.93;;;22.80;99.90;;;;;;4159720;28;20213;-75
2022/09/13 00:29:42;;;;;;;4.75;4.22;;;22.80;99.90;;;;;;4160085;28;20247;-75
2022/09/13 00:31:44;;;;;;;6.15;4.47;;;22.80;99.90;;;;;;4161864;28;20299;-75
2022/09/13 00:33:47;;;;;;;4.47;4.05;;;22.80;99.90;;;;;;4162059;28;20664;-75
2022/09/13 00:35:49;;;;;;;5.22;4.72;;;22.80;99.90;;;;;;4161750;28;20327;-75
2022/09/13 00:37:51;;;;;;;5.47;4.43;;;22.80;99.90;;;;;;4161664;28;20274;-75
2022/09/13 00:39:55;;;;;;;7.13;4.90;;;22.80;99.90;;;;;;4162134;28;20224;-75
2022/09/13 00:41:57;;;;;;;4.85;4.13;;;22.80;99.90;;;;;;4161962;28;20217;-74
2022/09/13 00:44:01;;;;;;;5.07;3.95;;;22.80;99.90;;;;;;4159305;28;20244;-75
2022/09/13 00:46:04;;;;;;;5.88;4.40;;;22.80;99.90;;;;;;4160407;28;20220;-75
2022/09/13 00:48:10;;;;;;;5.70;4.15;;;22.80;99.90;;;;;;4164161;28;20279;-75
2022/09/13 00:50:19;;;;;;;5.40;4.32;;;22.80;99.90;;;;;;4161504;28;20274;-75
2022/09/13 00:52:22;;;;;;;5.00;4.22;;;22.80;99.90;;;;;;4171573;28;20215;-75
2022/09/13 00:54:30;;;;;;;5.28;4.38;;;22.80;99.90;;;;;;4168164;28;20627;-75
2022/09/13 00:56:39;;;;;;;5.38;4.28;;;22.80;99.90;;;;;;4162840;28;20216;-75
2022/09/13 00:58:47;;;;;;;5.70;4.82;;;22.80;99.90;;;;;;4153596;28;20223;-75
2022/09/13 01:00:51;;;;;;;5.43;4.80;;;22.80;99.90;;;;;;4167683;28;20250;-75
2022/09/13 01:02:55;;;;;;;4.90;4.20;;;22.80;99.90;;;;;;4162558;28;20220;-75
2022/09/13 01:04:58;;;;;;;5.10;4.60;;;22.80;99.90;;;;;;4169515;28;20278;-75
2022/09/13 01:07:06;;;;;;;4.78;4.25;;;22.80;99.90;;;;;;4166433;28;20366;-75
2022/09/13 01:09:12;;;;;;;5.30;4.35;;;22.70;99.90;;;;;;4163259;28;20224;-75
2022/09/13 01:11:21;;;;;;;5.13;4.40;;;22.80;99.90;;;;;;4166388;28;20271;-75
2022/09/13 01:13:27;;;;;;;4.65;4.10;;;22.80;99.90;;;;;;4171308;28;20220;-75
2022/09/13 01:15:30;;;;;;;6.18;4.57;;;22.80;99.90;;;;;;4162936;28;20220;-75
2022/09/13 01:17:33;;;;;;;4.50;3.92;;;22.80;99.90;;;;;;4157898;28;20276;-75
2022/09/13 01:19:36;;;;;;;6.03;4.10;;;22.70;99.90;;;;;;4166601;28;20326;-75
2022/09/13 01:22:13;;;;;;;4.47;4.07;;;22.80;99.90;;;;;;4163369;28;20280;-75
2022/09/13 01:24:58;;;;;;;4.80;4.30;;;22.80;99.90;;;;;;4172344;28;20296;-75
2022/09/13 01:27:26;;;;;;;6.63;4.55;;;22.80;99.90;;;;;;4154015;28;20456;-75
2022/09/13 01:29:54;;;;;;;5.93;4.60;;;22.80;99.90;;;;;;4162401;28;20294;-75
2022/09/13 01:32:07;;;;;;;5.50;4.13;;;22.80;99.90;;;;;;4161392;28;20616;-75
2022/09/13 01:34:20;;;;;;;5.72;4.28;;;22.80;99.90;;;;;;4166858;28;20270;-75
2022/09/13 01:36:36;;;;;;;6.25;4.72;;;22.80;99.90;;;;;;4165764;28;20603;-75
2022/09/13 01:38:58;;;;;;;6.55;4.65;;;22.70;99.90;;;;;;4163446;28;20669;-75
2022/09/13 01:41:09;;;;;;;4.82;4.32;;;22.80;99.90;;;;;;4169900;28;20271;-75
2022/09/13 01:43:25;;;;;;;5.72;4.43;;;22.70;99.90;;;;;;4159416;28;20719;-75
2022/09/13 01:45:39;;;;;;;5.47;4.22;;;22.80;99.90;;;;;;4162872;28;20282;-75
2022/09/13 01:47:49;;;;;;;4.72;3.95;;;22.70;99.90;;;;;;4171955;28;20224;-75
2022/09/13 01:50:02;;;;;;;4.95;4.20;;;22.70;99.90;;;;;;4160308;28;20277;-75
2022/09/13 01:52:08;;;;;;;4.53;4.13;;;22.80;99.90;;;;;;4162335;28;20232;-75
2022/09/13 01:54:18;;;;;;;4.82;3.90;;;22.80;99.90;;;;;;4166808;28;20273;-75
2022/09/13 01:56:25;;;;;;;4.82;3.97;;;22.70;99.90;;;;;;4172718;28;20713;-74
2022/09/13 01:58:31;;;;;;;5.68;4.32;;;22.80;99.90;;;;;;4172650;28;20251;-75
2022/09/13 02:00:39;;;;;;;4.85;4.40;;;22.70;99.90;;;;;;4166203;28;20716;-75
2022/09/13 02:02:49;;;;;;;5.00;4.20;;;22.70;99.90;;;;;;4168599;28;20219;-75
2022/09/13 02:04:59;;;;;;;5.28;4.00;;;22.70;99.90;;;;;;4158481;28;20305;-75
2022/09/13 02:07:04;;;;;;;4.82;4.00;;;22.70;99.90;;;;;;4162041;28;20300;-75
2022/09/13 02:09:11;;;;;;;4.05;3.65;;;22.70;99.90;;;;;;4168287;28;20224;-75
2022/09/13 02:11:16;;;;;;;4.70;4.20;;;22.70;99.90;;;;;;4162991;28;20216;-75
2022/09/13 02:13:22;;;;;;;4.78;3.95;;;22.70;99.90;;;;;;4162950;28;20219;-75
2022/09/13 02:15:29;;;;;;;4.82;4.15;;;22.70;99.90;;;;;;4169538;28;20263;-75
2022/09/13 02:17:37;;;;;;;5.88;4.57;;;22.70;99.90;;;;;;4169718;28;20231;-75
2022/09/13 02:19:47;;;;;;;5.95;4.60;;;22.70;99.90;;;;;;4153342;28;20556;-75
2022/09/13 02:21:54;;;;;;;5.28;4.00;;;22.70;99.90;;;;;;4168421;28;20388;-75
2022/09/13 02:24:00;;;;;;;4.40;3.75;;;22.70;99.90;;;;;;4169665;28;21047;-75
2022/09/13 02:26:04;;;;;;;4.63;4.22;;;22.70;99.90;;;;;;4161168;28;20279;-75
2022/09/13 02:28:10;;;;;;;4.93;3.88;;;22.70;99.90;;;;;;4167234;28;20593;-75
2022/09/13 02:30:14;;;;;;;5.75;4.20;;;22.70;99.90;;;;;;4160218;28;20227;-74
2022/09/13 02:32:21;;;;;;;5.25;3.95;;;22.70;99.90;;;;;;4162398;28;21288;-75
2022/09/13 02:34:26;;;;;;;4.28;3.88;;;22.70;99.90;;;;;;4164323;28;20220;-75
2022/09/13 02:36:33;;;;;;;4.05;3.65;;;22.70;99.90;;;;;;4167634;28;20966;-75
2022/09/13 02:38:44;;;;;;;4.32;3.92;;;22.70;99.90;;;;;;4165251;28;20352;-75
2022/09/13 02:40:53;;;;;;;6.05;4.40;;;22.70;99.90;;;;;;4152982;28;20215;-75
2022/09/13 02:43:00;;;;;;;6.20;4.05;;;22.70;99.90;;;;;;4170010;28;20219;-75
2022/09/13 02:45:05;;;;;;;5.00;4.50;;;22.70;99.90;;;;;;4166181;28;20308;-75
2022/09/13 02:47:17;;;;;;;5.15;4.22;;;22.70;99.90;;;;;;4166972;28;20224;-75
2022/09/13 02:49:25;;;;;;;4.45;3.40;;;22.70;99.90;;;;;;4163197;28;20228;-75
2022/09/13 02:51:36;;;;;;;4.68;4.00;;;22.70;99.90;;;;;;4171902;28;20264;-75
2022/09/13 02:53:43;;;;;;;5.68;4.18;;;22.70;99.90;;;;;;4156349;28;20275;-75
2022/09/13 02:55:53;;;;;;;6.90;4.18;;;22.70;99.90;;;;;;4155533;28;20657;-75
2022/09/13 02:58:02;;;;;;;4.80;3.90;;;22.70;99.90;;;;;;4159307;28;20221;-75
2022/09/13 03:00:05;;;;;;;4.68;3.65;;;22.70;99.90;;;;;;4163239;28;20274;-75
2022/09/13 03:02:12;;;;;;;4.78;3.83;;;22.70;99.90;;;;;;4161665;28;20224;-75
2022/09/13 03:04:15;;;;;;;4.85;3.92;;;22.70;99.90;;;;;;4170019;28;20261;-75
2022/09/13 03:06:23;;;;;;;4.47;3.92;;;22.70;99.90;;;;;;4165363;28;20301;-75
2022/09/13 03:08:28;;;;;;;5.82;4.05;;;22.70;99.90;;;;;;4160784;28;20215;-75
2022/09/13 03:10:37;;;;;;;4.57;3.95;;;22.70;99.90;;;;;;4167116;28;20266;-75
2022/09/13 03:13:12;;;;;;;5.00;4.05;;;22.70;99.90;;;;;;4155836;28;20668;-75
2022/09/13 03:15:24;;;;;;;4.57;3.97;;;22.70;99.90;;;;;;4153772;28;20241;-75
2022/09/13 03:17:49;;;;;;;4.55;3.80;;;22.70;99.90;;;;;;4167412;28;20212;-75
2022/09/13 03:20:08;;;;;;;4.75;3.75;;;22.70;99.90;;;;;;4159039;28;20220;-75
2022/09/13 03:22:34;;;;;;;3.78;3.17;;;22.70;99.90;;;;;;4175171;28;20227;-75
2022/09/13 03:24:49;;;;;;;4.32;3.92;;;22.70;99.90;;;;;;4167962;28;20228;-75
2022/09/13 03:27:03;;;;;;;5.00;4.13;;;22.70;99.90;;;;;;4156735;28;20264;-75
2022/09/13 03:29:26;;;;;;;5.38;4.03;;;22.70;99.90;;;;;;4173296;28;20273;-75
2022/09/13 03:31:33;;;;;;;5.38;3.53;;;22.70;99.90;;;;;;4159314;28;20270;-75
2022/09/13 03:33:44;;;;;;;5.28;3.60;;;22.70;99.90;;;;;;4157628;28;21053;-75
2022/09/13 03:35:54;;;;;;;4.57;3.88;;;22.70;99.90;;;;;;4155489;28;20263;-74
2022/09/13 03:38:01;;;;;;;3.60;3.30;;;22.70;99.90;;;;;;4172099;28;20266;-74
2022/09/13 03:40:09;;;;;;;4.45;3.95;;;22.70;99.90;;;;;;4166851;28;20232;-74
2022/09/13 03:42:18;;;;;;;4.43;3.70;;;22.70;99.90;;;;;;4165328;28;20223;-75
2022/09/13 03:44:23;;;;;;;4.43;3.65;;;22.70;99.90;;;;;;4172147;28;20220;-75
2022/09/13 03:46:29;;;;;;;5.97;3.72;;;22.70;99.90;;;;;;4167358;28;20634;-75
2022/09/13 03:48:35;;;;;;;5.35;3.80;;;22.70;99.90;;;;;;4153070;28;20232;-75
2022/09/13 03:50:39;;;;;;;5.63;3.67;;;22.60;99.90;;;;;;4159597;28;20220;-75
2022/09/13 03:52:42;;;;;;;4.35;3.58;;;22.70;99.90;;;;;;4160657;28;20217;-75
2022/09/13 03:54:44;;;;;;;3.90;3.40;;;22.70;99.90;;;;;;4163756;28;20212;-75
2022/09/13 03:57:10;;;;;;;4.85;3.90;;;22.70;99.90;;;;;;4172392;28;20220;-74
2022/09/13 03:59:12;;;;;;;4.80;3.47;;;22.70;99.90;;;;;;4164265;28;20224;-75
2022/09/13 04:01:18;;;;;;;4.75;3.63;;;22.70;99.90;;;;;;4176638;28;20250;-75
2022/09/13 04:03:21;;;;;;;4.20;3.35;;;22.60;99.90;;;;;;4173171;28;20280;-74
2022/09/13 04:05:23;;;;;;;4.05;3.50;;;22.60;99.90;;;;;;4170212;28;20232;-74
2022/09/13 04:07:26;;;;;;;4.93;3.85;;;22.70;99.90;;;;;;4158607;28;20221;-74
2022/09/13 04:09:28;;;;;;;4.22;3.47;;;22.70;99.90;;;;;;4164919;28;20271;-74
2022/09/13 04:11:31;;;;;;;4.15;3.75;;;22.70;99.90;;;;;;4174313;28;20275;-75
2022/09/13 04:13:35;;;;;;;4.57;3.72;;;22.60;99.90;;;;;;4170534;28;20228;-75
2022/09/13 04:15:37;;;;;;;3.85;3.40;;;22.70;99.90;;;;;;4167651;28;20703;-75
2022/09/13 04:17:40;;;;;;;4.78;3.33;;;22.70;99.90;;;;;;4164947;28;20208;-75
2022/09/13 04:19:43;;;;;;;4.15;3.75;;;22.70;99.90;;;;;;4169206;28;20220;-75
2022/09/13 04:21:47;;;;;;;3.53;3.17;;;22.60;99.90;;;;;;4156058;28;20237;-75
2022/09/13 04:23:50;;;;;;;4.25;3.67;;;22.70;99.90;;;;;;4161044;28;20228;-75
2022/09/13 04:25:53;;;;;;;4.10;3.60;;;22.60;99.90;;;;;;4160255;28;20295;-75
2022/09/13 04:27:56;;;;;;;4.05;3.40;;;22.60;99.90;;;;;;4148902;28;20217;-75
2022/09/13 04:29:59;;;;;;;4.28;3.30;;;22.70;99.90;;;;;;4167983;28;20271;-75
2022/09/13 04:32:02;;;;;;;5.10;4.15;;;22.60;99.90;;;;;;4165432;28;20262;-75
2022/09/13 04:34:05;;;;;;;5.00;3.25;;;22.70;99.90;;;;;;4170072;28;20737;-74
2022/09/13 04:36:07;;;;;;;4.10;3.60;;;22.60;99.90;;;;;;4172282;28;20212;-75
2022/09/13 04:38:09;;;;;;;4.15;3.30;;;22.60;99.90;;;;;;4166381;28;20295;-75
2022/09/13 04:40:12;;;;;;;3.92;3.47;;;22.60;99.90;;;;;;4163627;28;20641;-75
2022/09/13 04:42:15;;;;;;;4.25;3.63;;;22.70;99.90;;;;;;4156436;28;20224;-75
2022/09/13 04:44:17;;;;;;;3.92;3.30;;;22.60;99.90;;;;;;4169568;28;20279;-75
2022/09/13 04:46:21;;;;;;;4.05;3.42;;;22.60;99.90;;;;;;4164144;28;20292;-75
2022/09/13 04:48:23;;;;;;;3.97;3.20;;;22.60;99.90;;;;;;4166560;28;20239;-75
2022/09/13 04:50:26;;;;;;;3.53;3.15;;;22.70;99.90;;;;;;4165707;28;20672;-75
2022/09/13 04:52:28;;;;;;;3.63;3.10;;;22.60;99.90;;;;;;4152562;28;20283;-75
2022/09/13 04:54:30;;;;;;;3.78;3.45;;;22.60;99.90;;;;;;4170456;28;20285;-75
2022/09/13 04:56:33;;;;;;;3.72;3.33;;;22.60;99.90;;;;;;4158970;28;20221;-75
2022/09/13 04:58:35;;;;;;;4.65;3.45;;;22.60;99.90;;;;;;4150041;28;20275;-75
2022/09/13 05:00:37;;;;;;;5.07;3.45;;;22.60;99.90;;;;;;4167149;28;20330;-75
2022/09/13 05:02:41;;;;;;;3.97;3.08;;;22.60;99.90;;;;;;4164672;28;20221;-75
2022/09/13 05:04:43;;;;;;;4.22;3.55;;;22.60;99.90;;;;;;4161360;28;20282;-75
2022/09/13 05:06:47;;;;;;;4.13;3.22;;;22.60;99.90;;;;;;4168200;28;20708;-75
2022/09/13 05:08:54;;;;;;;4.65;3.40;;;22.60;99.90;;;;;;4166461;28;20290;-75
2022/09/13 05:10:57;;;;;;;3.65;3.20;;;22.60;99.90;;;;;;4164886;28;20636;-75
2022/09/13 05:13:00;;;;;;;3.63;3.22;;;22.60;99.90;;;;;;4166523;28;20312;-74
2022/09/13 05:15:02;;;;;;;4.28;3.60;;;22.60;99.90;;;;;;4167463;28;20223;-75
2022/09/13 05:17:05;;;;;;;3.80;3.20;;;22.60;99.90;;;;;;4165364;28;20266;-75
2022/09/13 05:19:10;;;;;;;3.85;3.28;;;22.60;99.90;;;;;;4166258;28;20228;-74
2022/09/13 05:21:12;;;;;;;4.35;3.40;;;22.60;99.90;;;;;;4164276;28;20635;-75
2022/09/13 05:23:14;;;;;;;3.95;3.35;;;22.60;99.90;;;;;;4167958;28;20216;-75
2022/09/13 05:25:17;;;;;;;3.95;3.33;;;22.60;99.90;;;;;;4163827;28;20212;-75
2022/09/13 05:27:19;;;;;;;3.88;3.47;;;22.70;99.90;;;;;;4162905;28;20229;-75
2022/09/13 05:29:21;;;;;;;4.03;3.60;;;22.60;99.90;;;;;;4165438;28;20220;-74
2022/09/13 05:31:26;;;;;;;4.10;3.22;;;22.60;99.90;;;;;;4162831;28;20656;-75
2022/09/13 05:33:31;;;;;;;3.30;3.00;;;22.60;99.90;;;;;;4168701;28;20270;-75
2022/09/13 05:35:35;;;;;;;4.78;3.63;;;22.60;99.90;;;;;;4165740;28;20239;-75
2022/09/13 05:37:37;;;;;;;3.42;3.05;;;22.60;99.90;;;;;;4163152;28;20225;-75
2022/09/13 05:39:39;;;;;;;3.22;2.92;;;22.60;99.90;;;;;;4171804;28;20284;-75
2022/09/13 05:41:42;;;;;;;3.30;2.92;;;22.60;99.90;;;;;;4169872;28;20318;-75
2022/09/13 05:43:44;;;;;;;4.18;3.30;;;22.60;99.90;;;;;;4166353;28;20294;-75
2022/09/13 05:45:46;;;;;;;3.95;3.25;;;22.60;99.90;;;;;;4163145;28;20274;-75
2022/09/13 05:47:51;;;;;;;3.10;2.75;;;22.60;99.90;;;;;;4172613;28;20220;-75
2022/09/13 05:49:53;;;;;;;3.03;2.72;;;22.60;99.90;;;;;;4152969;28;20264;-75
2022/09/13 05:51:57;;;;;;;3.95;3.38;;;22.60;99.90;;;;;;4163587;28;20220;-75
2022/09/13 05:53:59;;;;;;;3.95;3.38;;;22.60;99.90;;;;;;4173421;28;20220;-75
2022/09/13 05:56:02;;;;;;;4.85;3.20;;;22.60;99.90;;;;;;4170560;28;20212;-75
2022/09/13 05:58:04;;;;;;;3.42;3.13;;;22.60;99.90;;;;;;4167602;28;20216;-75
2022/09/13 06:00:08;;;;;;;3.47;2.92;;;22.60;99.90;;;;;;4163877;28;20224;-75
2022/09/13 06:02:10;;;;;;;4.00;3.05;;;22.60;99.90;;;;;;4164737;28;20220;-75
2022/09/13 06:04:13;;;;;;;3.83;3.38;;;22.60;99.90;;;;;;4171261;28;20224;-75
2022/09/13 06:06:16;;;;;;;3.40;3.10;;;22.60;99.90;;;;;;4146650;28;20284;-75
2022/09/13 06:08:19;;;;;;;3.42;2.90;;;22.60;99.90;;;;;;4148831;28;20286;-75
2022/09/13 06:10:22;;;;;;;4.18;3.35;;;22.60;99.90;;;;;;4150224;28;20538;-75
2022/09/13 06:12:24;;;;;;;3.88;3.22;;;22.60;99.90;;;;;;4146397;28;20280;-75
2022/09/13 06:14:26;;;;;;;3.70;2.70;;;22.60;99.90;;;;;;4153441;28;20224;-75
2022/09/13 06:16:28;;;;;;;3.35;2.92;;;22.60;99.90;;;;;;4142982;28;20222;-75
2022/09/13 06:18:31;;;;;;;3.40;2.92;;;22.60;99.90;;;;;;4133595;28;20285;-75
2022/09/13 06:20:33;;;;;;;3.88;3.00;;;22.60;99.90;;;;;;4147672;28;20623;-75
2022/09/13 06:22:35;;;;;;;3.55;3.25;;;22.60;99.90;;;;;;4156884;28;20662;-75
2022/09/13 06:24:39;;;;;;;3.83;2.90;;;22.60;99.90;;;;;;4140598;28;20268;-75
2022/09/13 06:26:42;;;;;;;3.55;3.00;;;22.60;99.90;;;;;;4138389;28;20372;-75
2022/09/13 06:28:48;;;;;;;3.67;3.20;;;22.60;99.90;;;;;;4148719;28;20285;-75
2022/09/13 06:30:50;;;;;;;3.30;2.80;;;22.60;99.90;;;;;;4144011;28;20216;-75
2022/09/13 06:32:52;;;;;;;2.88;2.53;;;22.60;99.90;;;;;;4141593;28;20272;-75
2022/09/13 06:34:55;;;;;;;4.78;2.90;;;22.60;99.90;;;;;;4137445;28;20639;-75
2022/09/13 06:36:57;;;;;;;2.85;2.65;;;22.60;99.90;;;;;;4143627;28;20637;-75
2022/09/13 06:39:00;;;;;;;3.58;3.25;;;22.60;99.90;;;;;;4145021;28;20233;-75
2022/09/13 06:41:06;;;;;;;3.80;2.97;;;22.60;99.90;;;;;;4149585;28;20220;-75
2022/09/13 06:43:08;;;;;;;3.78;2.90;;;22.60;99.90;;;;;;4158305;28;20223;-74
2022/09/13 06:45:11;;;;;;;4.15;3.17;;;22.60;99.90;;;;;;4149492;28;20225;-75
2022/09/13 06:47:13;;;;;;;3.50;3.08;;;22.60;99.90;;;;;;4146073;28;20237;-75
2022/09/13 06:49:15;;;;;;;3.40;2.95;;;22.60;99.90;;;;;;4153527;28;20212;-75
2022/09/13 06:51:20;;;;;;;4.68;2.90;;;22.60;99.90;;;;;;4149220;28;20639;-75
2022/09/13 06:53:22;;;;;;;6.55;3.40;;;22.60;99.90;;;;;;4141397;28;20221;-73
2022/09/13 06:55:25;;;;;;;6.03;3.08;;;22.70;99.90;;;;;;4143697;28;20213;-75
2022/09/13 06:57:30;;;;;;;5.70;2.53;;;22.70;99.90;;;;;;4147833;28;20212;-75
2022/09/13 06:59:33;;;;;;;6.30;3.47;;;22.70;99.90;;;;;;4145696;28;20220;-74
2022/09/13 07:01:37;;;;;;;10.07;4.00;;;22.70;99.90;;;;;;4142293;28;20225;-74
2022/09/13 07:03:41;;;;;;;7.28;3.70;;;22.60;99.90;;;;;;4142230;28;20270;-75
2022/09/13 07:05:43;;;;;;;9.20;3.53;;;22.50;99.90;;;;;;4143537;28;20233;-75
2022/09/13 07:07:45;;;;;;;10.75;4.10;;;22.60;99.90;;;;;;4139940;28;20236;-74
2022/09/13 07:09:48;;;;;;;8.40;3.70;;;22.60;99.90;;;;;;4141201;28;20269;-74
2022/09/13 07:11:51;;;;;;;6.70;3.70;;;22.60;99.90;;;;;;4139471;28;20213;-74
2022/09/13 07:13:57;;;;;;;9.95;4.05;;;22.60;99.90;;;;;;4140618;28;22683;-73
2022/09/13 07:16:02;;;;;;;10.15;4.03;;;22.70;99.90;;;;;;4146852;28;20260;-75
2022/09/13 07:18:05;;;;;;;8.40;4.28;;;22.70;99.90;;;;;;4143006;28;20702;-73
2022/09/13 07:20:08;;;;;;;9.70;4.15;;;22.60;99.90;;;;;;4142661;28;20265;-74
2022/09/13 07:22:10;;;;;;;7.28;3.50;;;22.70;99.90;;;;;;4138739;28;20220;-74
2022/09/13 07:24:13;;;;;;;8.05;3.42;;;22.60;99.90;;;;;;4136648;28;20339;-74
2022/09/13 07:26:15;;;;;;;6.78;3.72;;;22.60;99.90;;;;;;4140675;28;20276;-74
2022/09/13 07:28:17;;;;;;;8.50;3.88;;;22.60;99.90;;;;;;4138820;28;20237;-74
2022/09/13 07:30:21;;;;;;;6.47;3.75;;;22.60;99.90;;;;;;4137768;28;20264;-75
2022/09/13 07:32:23;;;;;;;13.02;3.92;;;22.70;99.90;;;;;;4142717;28;20213;-74
2022/09/13 07:34:27;;;;;;;9.48;3.70;;;22.70;99.90;;;;;;4143814;28;20225;-75
2022/09/13 07:36:30;;;;;;;8.70;3.85;;;22.80;99.90;;;;;;4146082;28;20979;-75
2022/09/13 07:38:34;;;;;;;10.73;3.50;;;22.80;99.90;;;;;;4144533;28;20641;-74
2022/09/13 07:40:36;;;;;;;10.15;4.03;;;22.80;99.90;;;;;;4150135;28;20205;-75
2022/09/13 07:42:39;;;;;;;9.95;3.95;;;22.90;99.90;;;;;;4142814;28;20225;-74
2022/09/13 07:44:41;;;;;;;12.88;3.97;;;22.90;99.90;;;;;;4145168;28;20267;-79
2022/09/13 07:46:45;;;;;;;7.82;4.10;;;22.90;99.90;;;;;;4143199;28;20229;-77
2022/09/13 07:48:48;;;;;;;9.85;3.83;;;22.90;99.90;;;;;;4138523;28;20233;-76
2022/09/13 07:50:57;;;;;;;15.38;4.18;;;22.90;99.90;;;;;;4144820;28;20279;-76
2022/09/13 07:53:00;;;;;;;14.38;4.68;;;23.00;99.90;;;;;;4142161;28;20217;-76
2022/09/13 07:55:02;;;;;;;13.45;4.00;;;23.00;99.90;;;;;;4140090;28;20877;-76
2022/09/13 07:57:07;;;;;;;10.10;4.45;;;22.90;99.90;;;;;;4144548;28;20622;-77
2022/09/13 07:59:13;;;;;;;10.10;4.15;;;22.90;99.90;;;;;;4146947;28;20567;-77
2022/09/13 08:01:19;;;;;;;9.18;4.20;;;22.90;99.90;;;;;;4149239;28;20229;-76
2022/09/13 08:03:22;;;;;;;8.18;4.07;;;22.90;99.90;;;;;;4131181;28;20220;-77
2022/09/13 08:05:24;;;;;;;12.00;4.63;;;22.90;99.90;;;;;;4148249;28;20240;-78
2022/09/13 08:07:27;;;;;;;14.40;4.55;;;22.90;99.90;;;;;;4159254;28;20228;-77
2022/09/13 08:09:29;;;;;;;8.45;4.30;;;22.90;99.90;;;;;;4154511;28;20216;-78
2022/09/13 08:11:33;;;;;;;9.73;4.88;;;22.90;99.90;;;;;;4150704;28;20204;-77
2022/09/13 08:13:36;;;;;;;9.85;4.40;;;22.90;99.90;;;;;;4154941;28;20813;-77
2022/09/13 08:15:38;;;;;;;10.63;4.28;;;22.90;99.90;;;;;;4150943;28;20275;-78
2022/09/13 08:17:42;;;;;;;15.73;4.93;;;22.90;99.90;;;;;;4154112;28;20213;-77
2022/09/13 08:19:46;;;;;;;8.32;4.38;;;23.00;99.90;;;;;;4157868;28;20283;-78
2022/09/13 08:21:48;;;;;;;9.70;4.68;;;23.00;99.90;;;;;;4160233;28;20221;-78
2022/09/13 08:23:55;;;;;;;12.40;4.72;;;23.00;99.90;;;;;;4157570;28;20263;-78
2022/09/13 08:26:01;;;;;;;9.52;4.55;;;22.90;99.90;;;;;;4159078;28;20212;-77
2022/09/13 08:28:06;;;;;;;9.93;4.70;;;23.00;99.90;;;;;;4156407;28;20264;-74
2022/09/13 08:30:09;;;;;;;7.47;4.63;;;23.10;99.90;;;;;;4154423;28;20200;-73
2022/09/13 08:32:11;;;;;;;12.60;4.30;;;23.00;99.90;;;;;;4160003;28;20251;-74
2022/09/13 08:34:15;;;;;;;12.15;4.78;;;23.00;99.90;;;;;;4154731;28;20936;-74
2022/09/13 08:36:19;;;;;;;7.32;4.53;;;23.00;99.90;;;;;;4154269;28;20288;-74
2022/09/13 08:38:21;;;;;;;11.50;4.97;;;23.00;99.90;;;;;;4157291;28;20263;-74
2022/09/13 08:40:27;;;;;;;10.63;4.60;;;22.90;99.90;;;;;;4157478;28;20213;-74
2022/09/13 08:42:49;;;;;;;8.80;4.15;;;23.00;99.90;;;;;;4160816;28;20232;-74
2022/09/13 08:44:54;;;;;;;11.80;4.50;;;23.00;99.90;;;;;;4159993;28;20283;-73
2022/09/13 08:47:04;;;;;;;10.27;3.88;;;23.00;99.90;;;;;;4159157;28;20343;-73
2022/09/13 08:49:12;;;;;;;10.82;4.75;;;23.00;99.90;;;;;;4158433;28;20240;-74
2022/09/13 08:51:31;;;;;;;8.90;3.97;;;23.10;99.90;;;;;;4156675;28;20263;-77
2022/09/13 08:53:47;;;;;;;7.25;4.53;;;23.10;99.90;;;;;;4158067;28;20278;-78
2022/09/13 08:55:57;;;;;;;9.88;4.45;;;23.10;99.90;;;;;;4151536;28;20273;-77
2022/09/13 08:58:11;;;;;;;9.23;4.60;;;23.10;99.90;;;;;;4150536;28;20409;-77
2022/09/13 09:00:19;;;;;;;9.13;4.57;;;23.10;99.90;;;;;;4156636;28;20224;-78
2022/09/13 09:02:49;;;;;;;8.38;4.80;;;23.00;99.90;;;;;;4159069;28;20224;-79
2022/09/13 09:04:57;;;;;;;5.95;4.05;;;23.10;99.90;;;;;;4154105;28;20248;-75
2022/09/13 09:07:06;;;;;;;7.75;4.07;;;23.10;99.90;;;;;;4153218;28;20224;-75
2022/09/13 09:09:13;;;;;;;8.13;4.38;;;23.10;99.90;;;;;;4156935;28;20243;-75
2022/09/13 09:11:32;;;;;;;8.13;4.03;;;23.20;99.90;;;;;;4159280;28;20607;-76
2022/09/13 09:13:37;;;;;;;10.65;3.88;;;23.20;99.90;;;;;;4155413;28;20614;-74
2022/09/13 09:15:43;;;;;;;13.70;3.90;;;23.20;99.90;;;;;;4158541;28;20209;-77
2022/09/13 09:17:53;;;;;;;9.98;3.95;;;23.10;99.90;;;;;;4151572;28;20286;-76
2022/09/13 09:20:03;;;;;;;9.10;3.55;;;23.10;99.90;;;;;;4155198;28;20221;-75
2022/09/13 09:22:16;;;;;;;17.55;3.97;;;23.10;99.90;;;;;;4157427;28;20216;-75
2022/09/13 09:24:22;;;;;;;8.18;3.45;;;23.10;99.90;;;;;;4161484;28;20747;-75
2022/09/13 09:26:29;;;;;;;7.32;3.45;;;23.20;99.90;;;;;;4158697;28;20212;-75
2022/09/13 09:28:32;;;;;;;10.35;3.63;;;23.20;99.90;;;;;;4160204;28;20282;-75
2022/09/13 09:30:40;;;;;;;5.55;3.33;;;23.30;99.90;;;;;;4157630;28;20212;-75
2022/09/13 09:33:00;;;;;;;13.75;3.63;;;23.30;99.90;;;;;;4160176;28;20569;-74
2022/09/13 09:35:12;;;;;;;6.00;2.97;;;23.30;99.90;;;;;;4161019;28;20216;-75
2022/09/13 09:37:21;;;;;;;6.30;3.25;;;23.40;99.90;;;;;;4161592;28;20644;-75
2022/09/13 09:39:32;;;;;;;6.80;2.90;;;23.30;99.90;;;;;;4159451;28;20221;-75
2022/09/13 09:41:38;;;;;;;8.35;3.10;;;23.30;99.90;;;;;;4148201;28;20265;-74
2022/09/13 09:43:46;;;;;;;6.15;3.10;;;23.40;99.90;;;;;;4158314;28;20232;-75
2022/09/13 09:45:50;;;;;;;6.63;3.35;;;23.40;99.90;;;;;;4156462;28;20220;-75
2022/09/13 09:47:55;;;;;;;9.15;3.42;;;23.40;99.90;;;;;;4155177;28;20208;-75
2022/09/13 09:50:08;;;;;;;6.72;3.13;;;23.40;99.90;;;;;;4161135;28;20286;-74
2022/09/13 09:52:14;;;;;;;6.25;3.25;;;23.40;99.90;;;;;;4159206;28;20224;-74
2022/09/13 09:54:19;;;;;;;6.68;3.50;;;23.40;99.90;;;;;;4148499;28;20214;-74
2022/09/13 09:56:24;;;;;;;9.98;3.42;;;23.40;99.90;;;;;;4159082;28;20270;-74
2022/09/13 09:58:40;;;;;;;6.65;3.22;;;23.40;99.90;;;;;;4161286;28;20208;-74
2022/09/13 10:00:52;;;;;;;7.55;3.20;;;23.40;99.90;;;;;;4159306;28;20278;-74
2022/09/13 10:02:58;;;;;;;7.30;3.20;;;23.40;99.90;;;;;;4160888;28;20228;-74
2022/09/13 10:05:03;;;;;;;6.07;3.20;;;23.40;99.90;;;;;;4158752;28;20294;-74
2022/09/13 10:07:11;;;;;;;6.97;3.08;;;23.40;99.90;;;;;;4159017;28;20224;-74
2022/09/13 10:09:18;;;;;;;4.78;2.80;;;23.40;99.90;;;;;;4159579;28;20303;-75
2022/09/13 10:11:26;;;;;;;7.38;3.10;;;23.40;99.90;;;;;;4157810;28;20216;-75
2022/09/13 10:13:29;;;;;;;4.03;2.92;;;23.40;99.90;;;;;;4161798;28;20220;-74
2022/09/13 10:15:34;;;;;;;8.32;3.40;;;23.40;99.90;;;;;;4157597;28;20220;-75
2022/09/13 10:17:36;;;;;;;4.85;3.13;;;23.40;99.90;;;;;;4158706;28;20220;-74
2022/09/13 10:19:39;;;;;;;7.10;3.10;;;23.40;99.90;;;;;;4161465;28;20208;-74
2022/09/13 10:21:41;;;;;;;6.28;3.17;;;23.40;99.90;;;;;;4161396;28;20238;-75
2022/09/13 10:23:45;;;;;;;5.72;3.47;;;23.40;99.90;;;;;;4161228;28;20706;-75
2022/09/13 10:26:04;;;;;;;6.88;3.10;;;23.40;99.90;;;;;;4159776;28;20224;-74
2022/09/13 10:28:12;;;;;;;5.07;2.75;;;23.40;99.90;;;;;;4156431;28;20212;-75
2022/09/13 10:30:31;;;;;;;6.53;3.40;;;23.40;99.90;;;;;;4156445;28;20266;-75
2022/09/13 10:32:33;;;;;;;9.25;3.05;;;23.50;99.90;;;;;;4163170;28;20873;-75
2022/09/13 10:34:36;;;;;;;7.40;3.05;;;23.50;99.90;;;;;;4159171;28;20632;-75
2022/09/13 10:36:50;;;;;;;5.10;2.85;;;23.50;99.90;;;;;;4162235;28;20238;-75
2022/09/13 10:38:58;;;;;;;6.32;3.08;;;23.40;99.90;;;;;;4154580;28;20220;-74
2022/09/13 10:41:06;;;;;;;7.50;2.70;;;23.50;99.90;;;;;;4160266;28;20258;-75
2022/09/13 10:43:20;;;;;;;5.43;3.00;;;23.40;99.90;;;;;;4159955;28;20208;-75
2022/09/13 10:45:25;;;;;;;6.90;3.22;;;23.50;99.90;;;;;;4163327;28;20619;-75
2022/09/13 10:47:32;;;;;;;6.90;3.00;;;23.50;99.90;;;;;;4167379;28;20216;-75
2022/09/13 10:49:47;;;;;;;5.13;2.80;;;23.50;99.90;;;;;;4157457;28;20576;-75
2022/09/13 10:51:49;;;;;;;5.35;2.78;;;23.50;99.90;;;;;;4160748;28;20220;-74
2022/09/13 10:54:07;;;;;;;5.72;2.53;;;23.50;99.90;;;;;;4156060;28;20221;-76
2022/09/13 10:56:21;;;;;;;4.95;2.97;;;23.50;99.90;;;;;;4157004;28;20303;-77